createdAt,value
2019-02-16T00:02:52.819Z,46.50
2019-02-16T00:08:07.461Z,46.70
2019-02-16T00:13:21.818Z,46.70
2019-02-16T00:18:36.355Z,46.70
2019-02-16T00:23:51.120Z,46.70
2019-02-16T00:29:05.804Z,46.70
2019-02-16T00:34:20.486Z,46.80
2019-02-16T00:39:34.827Z,46.80
2019-02-16T00:44:49.628Z,46.90
2019-02-16T00:50:03.983Z,47.00
2019-02-16T00:55:18.423Z,47.00
2019-02-16T01:00:32.984Z,47.10
2019-02-16T01:05:47.694Z,47.20
2019-02-16T01:11:02.084Z,47.20
2019-02-16T01:21:30.586Z,47.40
2019-02-16T01:26:45.053Z,47.80
2019-02-16T01:31:59.737Z,47.50
2019-02-16T01:37:14.167Z,47.70
2019-02-16T01:42:29.113Z,47.70
2019-02-16T01:47:43.584Z,47.80
2019-02-16T01:52:58.160Z,47.90
2019-02-16T01:58:12.681Z,48.00
2019-02-16T02:03:27.031Z,48.10
2019-02-16T02:08:41.403Z,48.10
2019-02-16T02:13:55.658Z,48.30
2019-02-16T02:19:10.134Z,48.30
2019-02-16T02:24:27.946Z,48.30
2019-02-16T02:29:42.345Z,48.30
2019-02-16T02:34:56.980Z,48.50
2019-02-16T02:40:11.660Z,48.50
2019-02-16T02:45:26.338Z,48.60
2019-02-16T02:50:40.768Z,48.70
2019-02-16T02:55:55.570Z,48.80
2019-02-16T03:01:10.047Z,48.90
2019-02-16T03:06:24.423Z,49.20
2019-02-16T03:11:39.037Z,50.00
2019-02-16T03:16:54.829Z,50.20
2019-02-16T03:22:08.997Z,50.20
2019-02-16T03:27:42.815Z,50.20
2019-02-16T03:33:26.832Z,50.20
2019-02-16T03:39:13.151Z,50.40
2019-02-16T03:44:27.546Z,50.40
2019-02-16T03:49:42.148Z,50.50
2019-02-16T03:54:57.479Z,50.50
2019-02-16T04:00:12.030Z,50.60
2019-02-16T04:05:26.895Z,50.60
2019-02-16T04:10:41.672Z,50.80
2019-02-16T04:15:56.341Z,50.80
2019-02-16T04:21:10.664Z,50.80
2019-02-16T04:26:25.053Z,50.90
2019-02-16T04:31:38.778Z,51.00
2019-02-16T04:36:53.238Z,51.00
2019-02-16T04:42:07.478Z,51.10
2019-02-16T04:47:22.506Z,51.10
2019-02-16T04:52:37.354Z,51.20
2019-02-16T04:57:51.859Z,51.30
2019-02-16T05:03:06.631Z,51.30
2019-02-16T05:08:21.400Z,51.30
2019-02-16T05:13:35.600Z,51.40
2019-02-16T05:18:49.957Z,51.50
2019-02-16T05:24:04.616Z,51.40
2019-02-16T05:29:18.970Z,51.50
2019-02-16T05:34:33.697Z,51.50
2019-02-16T05:39:48.359Z,51.50
2019-02-16T05:45:21.953Z,51.70
2019-02-16T05:50:36.630Z,51.60
2019-02-16T05:55:51.337Z,51.60
2019-02-16T06:01:05.831Z,51.70
2019-02-16T06:06:20.460Z,51.80
2019-02-16T06:11:35.124Z,51.70
2019-02-16T06:16:49.765Z,51.80
2019-02-16T06:22:04.275Z,51.90
2019-02-16T06:27:18.694Z,52.00
2019-02-16T06:32:33.172Z,51.90
2019-02-16T06:37:47.385Z,52.10
2019-02-16T06:43:01.802Z,52.00
2019-02-16T06:48:15.863Z,52.10
2019-02-16T06:53:30.138Z,52.20
2019-02-16T06:58:44.406Z,52.20
2019-02-16T07:03:58.919Z,52.30
2019-02-16T07:09:13.248Z,52.40
2019-02-16T07:14:28.286Z,52.60
2019-02-16T07:19:47.353Z,52.70
2019-02-16T07:25:01.795Z,54.00
2019-02-16T07:30:16.249Z,55.50
2019-02-16T07:35:32.636Z,56.30
2019-02-16T07:40:47.558Z,56.60
2019-02-16T07:46:27.497Z,57.20
2019-02-16T07:52:01.442Z,57.90
2019-02-16T07:57:26.240Z,57.70
2019-02-16T08:03:06.227Z,57.90
2019-02-16T08:14:06.719Z,58.40
2019-02-16T08:19:43.084Z,58.60
2019-02-16T08:25:19.592Z,59.00
2019-02-16T08:30:56.205Z,59.10
2019-02-16T08:36:35.848Z,59.50
2019-02-16T08:42:01.182Z,60.00
2019-02-16T08:47:40.560Z,60.40
2019-02-16T08:53:28.846Z,61.00
2019-02-16T08:59:11.539Z,61.30
2019-02-16T09:04:43.634Z,61.50
2019-02-16T09:10:31.156Z,62.70
2019-02-16T09:15:54.745Z,62.40
2019-02-16T09:21:31.452Z,62.80
2019-02-16T09:27:00.482Z,63.20
2019-02-16T09:32:32.001Z,63.40
2019-02-16T09:38:11.686Z,63.80
2019-02-16T09:43:45.170Z,64.30
2019-02-16T09:49:17.222Z,64.90
2019-02-16T09:54:49.371Z,65.50
2019-02-16T10:00:13.830Z,68.30
2019-02-16T10:06:05.343Z,70.50
2019-02-16T10:11:29.627Z,69.60
2019-02-16T10:17:06.014Z,69.00
2019-02-16T10:22:42.606Z,69.80
2019-02-16T10:28:14.756Z,68.80
2019-02-16T10:33:57.348Z,68.90
2019-02-16T10:39:39.757Z,67.50
2019-02-16T10:45:12.347Z,66.90
2019-02-16T10:50:55.189Z,64.90
2019-02-16T10:56:27.352Z,64.20
2019-02-16T11:01:52.174Z,64.60
2019-02-16T11:07:26.814Z,63.80
2019-02-16T11:13:00.109Z,62.20
2019-02-16T11:18:52.192Z,60.40
2019-02-16T11:24:25.756Z,58.80
2019-02-16T11:30:05.002Z,57.30
2019-02-16T11:35:44.711Z,56.90
2019-02-16T11:41:36.204Z,55.10
2019-02-16T11:47:24.825Z,54.50
2019-02-16T11:52:53.294Z,54.20
2019-02-16T11:58:35.744Z,51.90
2019-02-16T12:04:09.012Z,51.20
2019-02-16T12:09:41.995Z,51.00
2019-02-16T12:15:14.518Z,49.90
2019-02-16T12:20:55.111Z,48.80
2019-02-16T12:26:18.889Z,47.40
2019-02-16T12:31:52.163Z,45.90
2019-02-16T12:37:12.857Z,44.40
2019-02-16T12:42:44.788Z,43.20
2019-02-16T12:48:22.177Z,39.40
2019-02-16T15:18:23.403Z,26.70
2019-02-16T15:23:38.614Z,27.30
2019-02-16T15:28:56.019Z,27.60
2019-02-16T15:34:11.204Z,28.30
2019-02-16T15:39:25.561Z,28.80
2019-02-16T15:44:40.266Z,29.60
2019-02-16T15:49:55.023Z,30.40
2019-02-16T15:55:10.843Z,31.60
2019-02-16T16:00:33.689Z,32.70
2019-02-16T16:05:48.305Z,34.70
2019-02-16T16:11:12.968Z,36.00
2019-02-16T16:16:42.715Z,36.60
2019-02-16T16:22:09.554Z,36.80
2019-02-16T16:27:36.831Z,37.30
2019-02-16T16:33:09.034Z,37.60
2019-02-16T16:38:34.335Z,37.70
2019-02-16T16:44:02.182Z,38.00
2019-02-16T16:49:34.087Z,38.20
2019-02-16T16:55:19.655Z,38.40
2019-02-16T17:01:08.298Z,38.60
2019-02-16T17:06:40.320Z,38.70
2019-02-16T17:12:12.401Z,38.80
2019-02-16T17:17:44.978Z,39.00
2019-02-16T17:23:30.727Z,39.10
2019-02-16T17:29:03.845Z,39.20
2019-02-16T17:34:41.659Z,39.30
2019-02-16T17:40:13.337Z,39.40
2019-02-16T17:45:36.764Z,39.50
2019-02-16T17:50:58.209Z,39.60
2019-02-16T17:56:46.749Z,39.60
2019-02-16T18:02:19.798Z,39.60
2019-02-16T18:07:48.671Z,39.80
2019-02-16T18:13:32.758Z,39.90
2019-02-16T18:19:13.816Z,39.70
2019-02-16T18:24:50.994Z,39.80
2019-02-16T18:30:54.481Z,39.90
2019-02-16T18:36:24.142Z,39.90
2019-02-16T18:42:00.236Z,40.10
2019-02-16T18:47:33.869Z,40.10
2019-02-16T18:53:10.177Z,40.20
2019-02-16T18:58:47.018Z,40.30
2019-02-16T19:04:35.938Z,40.40
2019-02-16T19:10:12.267Z,40.50
2019-02-16T19:15:37.986Z,40.60
2019-02-16T19:21:20.649Z,40.70
2019-02-16T19:26:48.267Z,40.80
2019-02-16T19:32:30.728Z,40.70
2019-02-16T19:38:08.134Z,40.80
2019-02-16T19:43:29.237Z,40.90
2019-02-16T19:48:56.134Z,40.80
2019-02-16T19:54:35.665Z,40.80
2019-02-16T20:00:14.969Z,40.90
2019-02-16T20:05:48.368Z,41.10
2019-02-16T20:11:24.517Z,41.00
2019-02-16T20:17:07.091Z,41.00
2019-02-16T20:22:42.528Z,41.10
2019-02-16T20:28:14.085Z,41.20
2019-02-16T20:33:46.540Z,41.20
2019-02-16T20:39:19.086Z,41.30
2019-02-16T20:44:58.980Z,41.40
2019-02-16T20:50:26.391Z,41.40
2019-02-16T20:56:02.824Z,41.50
2019-02-16T21:01:36.283Z,41.60
2019-02-16T21:07:08.166Z,41.70
2019-02-16T21:12:40.624Z,41.70
2019-02-16T21:18:13.886Z,41.90
2019-02-16T21:23:46.116Z,41.90
2019-02-16T21:29:16.040Z,41.90
2019-02-16T21:35:01.726Z,42.10
2019-02-16T21:40:47.849Z,42.10
2019-02-16T21:46:20.468Z,42.20
2019-02-16T21:51:57.046Z,42.30
2019-02-16T21:57:39.929Z,42.40
2019-02-16T22:03:05.633Z,42.60
2019-02-16T22:08:42.581Z,42.70
2019-02-16T22:13:57.122Z,42.80
2019-02-16T22:19:11.602Z,42.90
2019-02-16T22:24:26.427Z,43.00
2019-02-16T22:29:41.176Z,43.10
2019-02-16T22:34:55.815Z,43.20
2019-02-16T22:40:10.305Z,43.30
2019-02-16T22:45:25.041Z,43.30
2019-02-16T22:50:39.981Z,43.50
2019-02-16T22:55:55.027Z,43.50
2019-02-16T23:01:11.427Z,43.70
2019-02-16T23:06:26.479Z,43.90
2019-02-16T23:11:41.662Z,43.80
2019-02-16T23:16:56.486Z,43.90
2019-02-16T23:22:11.204Z,44.00
2019-02-16T23:27:26.082Z,44.00
2019-02-16T23:32:40.671Z,44.20
2019-02-16T23:37:55.215Z,44.30
2019-02-16T23:43:09.531Z,44.40
2019-02-16T23:48:24.216Z,44.50
2019-02-16T23:53:38.591Z,44.60
2019-02-16T23:58:52.858Z,44.70
